createdAt,value
2022-11-26T00:00:33.873Z,1014.89
2022-11-26T00:01:33.825Z,1014.87
2022-11-26T00:02:33.960Z,1014.96
2022-11-26T00:03:33.810Z,1014.87
2022-11-26T00:04:33.780Z,1014.90
2022-11-26T00:05:33.822Z,1014.88
2022-11-26T00:06:33.769Z,1014.90
2022-11-26T00:07:33.780Z,1014.93
2022-11-26T00:08:33.736Z,1014.93
2022-11-26T00:09:33.731Z,1014.90
2022-11-26T00:10:33.745Z,1014.95
2022-11-26T00:11:33.704Z,1014.92
2022-11-26T00:12:33.681Z,1014.90
2022-11-26T00:13:33.701Z,1014.99
2022-11-26T00:14:33.655Z,1015.01
2022-11-26T00:15:33.690Z,1015.03
2022-11-26T00:16:33.711Z,1014.98
2022-11-26T00:17:33.661Z,1014.96
2022-11-26T00:18:33.629Z,1014.98
2022-11-26T00:19:33.631Z,1015.05
2022-11-26T00:20:33.599Z,1015.03
2022-11-26T00:21:33.632Z,1015.04
2022-11-26T00:22:33.590Z,1015.08
2022-11-26T00:23:33.620Z,1015.04
2022-11-26T00:24:33.559Z,1015.06
2022-11-26T00:25:33.550Z,1015.07
2022-11-26T00:26:33.562Z,1015.12
2022-11-26T00:27:33.531Z,1015.07
2022-11-26T00:28:33.540Z,1015.09
2022-11-26T00:29:33.513Z,1015.14
2022-11-26T00:30:33.476Z,1015.14
2022-11-26T00:31:33.540Z,1015.08
2022-11-26T00:32:33.467Z,1015.13
2022-11-26T00:33:33.478Z,1015.13
2022-11-26T00:34:33.450Z,1015.10
2022-11-26T00:35:33.414Z,1015.14
2022-11-26T00:36:33.453Z,1015.14
2022-11-26T00:37:33.435Z,1015.12
2022-11-26T00:38:33.400Z,1015.10
2022-11-26T00:39:33.387Z,1015.12
2022-11-26T00:40:33.389Z,1015.17
2022-11-26T00:41:33.410Z,1015.14
2022-11-26T00:42:33.405Z,1015.18
2022-11-26T00:43:33.350Z,1015.20
2022-11-26T00:44:33.336Z,1015.24
2022-11-26T00:45:33.417Z,1015.27
2022-11-26T00:46:33.363Z,1015.22
2022-11-26T00:47:33.296Z,1015.25
2022-11-26T00:48:33.265Z,1015.23
2022-11-26T00:49:33.277Z,1015.26
2022-11-26T00:50:33.245Z,1015.22
2022-11-26T00:51:33.290Z,1015.26
2022-11-26T00:52:33.251Z,1015.27
2022-11-26T00:53:33.224Z,1015.27
2022-11-26T00:54:33.230Z,1015.27
2022-11-26T00:55:33.244Z,1015.30
2022-11-26T00:56:37.739Z,1015.29
2022-11-26T00:57:33.176Z,1015.36
2022-11-26T00:58:33.209Z,1015.35
2022-11-26T00:59:33.165Z,1015.37
2022-11-26T01:00:33.146Z,1015.35
2022-11-26T01:01:33.252Z,1015.36
2022-11-26T01:02:33.153Z,1015.32
2022-11-26T01:03:33.134Z,1015.37
2022-11-26T01:04:33.114Z,1015.36
2022-11-26T01:05:33.105Z,1015.39
2022-11-26T01:06:33.100Z,1015.37
2022-11-26T01:07:33.106Z,1015.35
2022-11-26T01:08:33.079Z,1015.41
2022-11-26T01:09:33.060Z,1015.39
2022-11-26T01:10:33.041Z,1015.42
2022-11-26T01:11:33.074Z,1015.43
2022-11-26T01:12:33.025Z,1015.43
2022-11-26T01:13:33.002Z,1015.43
2022-11-26T01:14:33.010Z,1015.45
2022-11-26T01:15:32.982Z,1015.42
2022-11-26T01:16:33.053Z,1015.46
2022-11-26T01:17:32.980Z,1015.48
2022-11-26T01:18:32.941Z,1015.47
2022-11-26T01:19:32.953Z,1015.48
2022-11-26T01:20:32.914Z,1015.53
2022-11-26T01:21:32.899Z,1015.52
2022-11-26T01:22:32.912Z,1015.50
2022-11-26T01:23:32.906Z,1015.51
2022-11-26T01:24:32.883Z,1015.52
2022-11-26T01:25:32.862Z,1015.55
2022-11-26T01:26:32.879Z,1015.58
2022-11-26T01:27:32.890Z,1015.62
2022-11-26T01:28:32.846Z,1015.63
2022-11-26T01:29:32.841Z,1015.61
2022-11-26T01:30:32.820Z,1015.63
2022-11-26T01:31:32.833Z,1015.59
2022-11-26T01:32:32.834Z,1015.62
2022-11-26T01:33:32.780Z,1015.65
2022-11-26T01:34:32.761Z,1015.62
2022-11-26T01:35:32.765Z,1015.64
2022-11-26T01:36:32.744Z,1015.70
2022-11-26T01:37:32.774Z,1015.66
2022-11-26T01:38:32.737Z,1015.65
2022-11-26T01:39:32.726Z,1015.64
2022-11-26T01:40:32.711Z,1015.64
2022-11-26T01:41:32.716Z,1015.67
2022-11-26T01:42:32.708Z,1015.60
2022-11-26T01:43:32.666Z,1015.65
2022-11-26T01:44:32.679Z,1015.62
2022-11-26T01:45:32.718Z,1015.63
2022-11-26T01:46:32.625Z,1015.64
2022-11-26T01:47:32.669Z,1015.67
2022-11-26T01:48:32.606Z,1015.69
2022-11-26T01:49:32.614Z,1015.69
2022-11-26T01:50:32.595Z,1015.73
2022-11-26T01:51:32.593Z,1015.69
2022-11-26T01:52:32.585Z,1015.68
2022-11-26T01:53:32.550Z,1015.69
2022-11-26T01:54:32.519Z,1015.70
2022-11-26T01:55:32.518Z,1015.71
2022-11-26T01:56:32.506Z,1015.70
2022-11-26T01:57:32.555Z,1015.74
2022-11-26T01:58:36.843Z,1015.76
2022-11-26T01:59:33.487Z,1015.74
2022-11-26T02:00:32.496Z,1015.77
2022-11-26T02:01:32.511Z,1015.75
2022-11-26T02:02:32.556Z,1015.78
2022-11-26T02:03:32.450Z,1015.78
2022-11-26T02:04:32.441Z,1015.77
2022-11-26T02:05:32.428Z,1015.80
2022-11-26T02:06:32.393Z,1015.81
2022-11-26T02:07:32.441Z,1015.83
2022-11-26T02:08:32.384Z,1015.80
2022-11-26T02:09:32.374Z,1015.81
2022-11-26T02:10:32.358Z,1015.86
2022-11-26T02:11:32.362Z,1015.85
2022-11-26T02:12:32.404Z,1015.85
2022-11-26T02:13:32.336Z,1015.84
2022-11-26T02:14:32.324Z,1015.84
2022-11-26T02:15:32.328Z,1015.89
2022-11-26T02:16:32.306Z,1015.95
2022-11-26T02:17:32.332Z,1015.93
2022-11-26T02:18:32.260Z,1015.94
2022-11-26T02:19:32.258Z,1015.97
2022-11-26T02:20:32.262Z,1015.96
2022-11-26T02:21:32.234Z,1016.00
2022-11-26T02:22:32.255Z,1015.98
2022-11-26T02:23:32.217Z,1015.98
2022-11-26T02:24:32.198Z,1015.99
2022-11-26T02:25:32.232Z,1016.01
2022-11-26T02:26:32.231Z,1015.99
2022-11-26T02:27:32.194Z,1015.99
2022-11-26T02:28:32.154Z,1016.02
2022-11-26T02:29:32.161Z,1016.04
2022-11-26T02:30:32.138Z,1016.03
2022-11-26T02:31:32.177Z,1016.05
2022-11-26T02:32:32.169Z,1016.02
2022-11-26T02:33:32.094Z,1016.06
2022-11-26T02:34:37.222Z,1016.04
2022-11-26T02:35:33.082Z,1016.11
2022-11-26T02:36:32.081Z,1016.12
2022-11-26T02:37:32.099Z,1016.08
2022-11-26T02:38:32.068Z,1016.10
2022-11-26T02:39:32.039Z,1016.15
2022-11-26T02:40:32.013Z,1016.14
2022-11-26T02:41:32.032Z,1016.14
2022-11-26T02:42:32.054Z,1016.15
2022-11-26T02:43:31.996Z,1016.15
2022-11-26T02:44:31.987Z,1016.14
2022-11-26T02:45:32.016Z,1016.15
2022-11-26T02:46:31.954Z,1016.17
2022-11-26T02:47:32.000Z,1016.16
2022-11-26T02:48:31.946Z,1016.19
2022-11-26T02:49:31.921Z,1016.24
2022-11-26T02:50:31.931Z,1016.24
2022-11-26T02:51:34.868Z,1016.25
2022-11-26T02:52:31.928Z,1016.23
2022-11-26T02:53:31.879Z,1016.30
2022-11-26T02:54:31.856Z,1016.30
2022-11-26T02:55:31.862Z,1016.34
2022-11-26T02:56:31.840Z,1016.34
2022-11-26T02:57:31.855Z,1016.39
2022-11-26T02:58:31.817Z,1016.36
2022-11-26T02:59:31.794Z,1016.37
2022-11-26T03:00:31.789Z,1016.43
2022-11-26T03:01:31.988Z,1016.37
2022-11-26T03:02:31.828Z,1016.37
2022-11-26T03:03:31.814Z,1016.39
2022-11-26T03:04:31.764Z,1016.38
2022-11-26T03:05:31.782Z,1016.37
2022-11-26T03:06:31.743Z,1016.38
2022-11-26T03:07:31.833Z,1016.39
2022-11-26T03:08:31.731Z,1016.40
2022-11-26T03:09:31.687Z,1016.40
2022-11-26T03:10:31.693Z,1016.40
2022-11-26T03:11:31.747Z,1016.43
2022-11-26T03:12:31.714Z,1016.41
2022-11-26T03:13:31.652Z,1016.47
2022-11-26T03:14:31.652Z,1016.42
2022-11-26T03:15:31.637Z,1016.47
2022-11-26T03:16:31.635Z,1016.43
2022-11-26T03:17:31.608Z,1016.50
2022-11-26T03:18:31.634Z,1016.49
2022-11-26T03:19:31.587Z,1016.51
2022-11-26T03:20:31.580Z,1016.55
2022-11-26T03:21:31.544Z,1016.54
2022-11-26T03:22:31.612Z,1016.52
2022-11-26T03:23:31.592Z,1016.57
2022-11-26T03:24:31.515Z,1016.58
2022-11-26T03:25:31.519Z,1016.51
2022-11-26T03:26:31.530Z,1016.57
2022-11-26T03:27:31.495Z,1016.64
2022-11-26T03:28:31.526Z,1016.63
2022-11-26T03:29:31.483Z,1016.66
2022-11-26T03:30:31.480Z,1016.71
2022-11-26T03:31:31.540Z,1016.71
2022-11-26T03:32:31.441Z,1016.77
2022-11-26T03:33:31.449Z,1016.76
2022-11-26T03:34:31.404Z,1016.74
2022-11-26T03:35:31.424Z,1016.75
2022-11-26T03:36:31.397Z,1016.81
2022-11-26T03:37:31.364Z,1016.79
2022-11-26T03:38:31.409Z,1016.79
2022-11-26T03:39:31.361Z,1016.81
2022-11-26T03:40:31.362Z,1016.78
2022-11-26T03:41:31.368Z,1016.86
2022-11-26T03:42:31.350Z,1016.88
2022-11-26T03:43:31.369Z,1016.88
2022-11-26T03:44:31.328Z,1016.84
2022-11-26T03:45:31.331Z,1016.84
2022-11-26T03:46:31.281Z,1016.86
2022-11-26T03:47:31.281Z,1016.85
2022-11-26T03:48:31.301Z,1016.84
2022-11-26T03:49:31.253Z,1016.85
2022-11-26T03:50:31.266Z,1016.85
2022-11-26T03:51:31.244Z,1016.79
2022-11-26T03:52:31.213Z,1016.79
2022-11-26T03:53:31.254Z,1016.84
2022-11-26T03:54:31.204Z,1016.83
2022-11-26T03:55:31.172Z,1016.86
2022-11-26T03:56:31.188Z,1016.83
2022-11-26T03:57:31.173Z,1016.84
2022-11-26T03:58:31.201Z,1016.80
2022-11-26T03:59:31.155Z,1016.82
2022-11-26T04:00:31.148Z,1016.83
2022-11-26T04:01:31.249Z,1016.83
2022-11-26T04:02:31.136Z,1016.86
2022-11-26T04:03:31.151Z,1016.82
2022-11-26T04:04:31.113Z,1016.86
2022-11-26T04:05:31.072Z,1016.84
2022-11-26T04:06:31.057Z,1016.91
2022-11-26T04:07:31.078Z,1016.91
2022-11-26T04:08:31.065Z,1016.90
2022-11-26T04:09:31.051Z,1016.97
2022-11-26T04:10:31.022Z,1016.97
2022-11-26T04:11:31.034Z,1016.93
2022-11-26T04:12:31.001Z,1016.96
2022-11-26T04:13:30.993Z,1016.96
2022-11-26T04:14:31.035Z,1016.97
2022-11-26T04:15:30.954Z,1017.03
2022-11-26T04:16:31.041Z,1017.02
2022-11-26T04:17:30.939Z,1016.97
2022-11-26T04:18:30.960Z,1017.02
2022-11-26T04:19:30.955Z,1017.04
2022-11-26T04:20:30.945Z,1017.07
2022-11-26T04:21:30.909Z,1017.04
2022-11-26T04:22:30.906Z,1017.06
2022-11-26T04:23:30.904Z,1017.06
2022-11-26T04:24:30.913Z,1017.09
2022-11-26T04:25:30.848Z,1017.09
2022-11-26T04:26:30.915Z,1017.08
2022-11-26T04:27:30.829Z,1017.09
2022-11-26T04:28:30.816Z,1017.11
2022-11-26T04:29:30.858Z,1017.10
2022-11-26T04:30:30.808Z,1017.11
2022-11-26T04:31:30.864Z,1017.11
2022-11-26T04:32:30.794Z,1017.15
2022-11-26T04:33:30.770Z,1017.16
2022-11-26T04:34:30.830Z,1017.20
2022-11-26T04:35:30.789Z,1017.20
2022-11-26T04:36:30.767Z,1017.18
2022-11-26T04:37:30.712Z,1017.20
2022-11-26T04:38:30.709Z,1017.23
2022-11-26T04:39:30.729Z,1017.24
2022-11-26T04:40:30.699Z,1017.26
2022-11-26T04:41:30.700Z,1017.23
2022-11-26T04:42:30.683Z,1017.25
2022-11-26T04:43:30.653Z,1017.22
2022-11-26T04:44:30.718Z,1017.24
2022-11-26T04:45:30.694Z,1017.29
2022-11-26T04:46:30.627Z,1017.27
2022-11-26T04:47:30.618Z,1017.28
2022-11-26T04:48:30.608Z,1017.33
2022-11-26T04:49:30.624Z,1017.38
2022-11-26T04:50:30.594Z,1017.37
2022-11-26T04:51:30.564Z,1017.40
2022-11-26T04:52:30.562Z,1017.41
2022-11-26T04:53:30.603Z,1017.44
2022-11-26T04:54:30.599Z,1017.45
2022-11-26T04:55:30.555Z,1017.50
2022-11-26T04:56:30.550Z,1017.51
2022-11-26T04:57:30.493Z,1017.57
2022-11-26T04:58:30.506Z,1017.52
2022-11-26T04:59:30.527Z,1017.54
2022-11-26T05:00:30.482Z,1017.55
2022-11-26T05:01:30.576Z,1017.60
2022-11-26T05:02:30.493Z,1017.59
2022-11-26T05:03:30.435Z,1017.63
2022-11-26T05:04:30.472Z,1017.63
2022-11-26T05:05:30.434Z,1017.59
2022-11-26T05:06:30.408Z,1017.63
2022-11-26T05:07:30.441Z,1017.64
2022-11-26T05:08:30.411Z,1017.66
2022-11-26T05:09:30.409Z,1017.65
2022-11-26T05:10:30.376Z,1017.67
2022-11-26T05:11:30.351Z,1017.67
2022-11-26T05:12:30.322Z,1017.68
2022-11-26T05:13:30.337Z,1017.72
2022-11-26T05:14:30.345Z,1017.75
2022-11-26T05:15:30.351Z,1017.74
2022-11-26T05:16:30.353Z,1017.75
2022-11-26T05:17:30.321Z,1017.73
2022-11-26T05:18:30.284Z,1017.73
2022-11-26T05:19:30.241Z,1017.81
2022-11-26T05:20:30.310Z,1017.77
2022-11-26T05:21:30.238Z,1017.79
2022-11-26T05:22:30.242Z,1017.82
2022-11-26T05:23:30.213Z,1017.87
2022-11-26T05:24:30.204Z,1017.87
2022-11-26T05:25:30.222Z,1017.87
2022-11-26T05:26:30.205Z,1017.92
2022-11-26T05:27:30.180Z,1017.93
2022-11-26T05:28:30.162Z,1017.91
2022-11-26T05:29:30.390Z,1017.96
2022-11-26T05:30:30.189Z,1017.94
2022-11-26T05:31:30.231Z,1017.90
2022-11-26T05:32:30.118Z,1017.96
2022-11-26T05:33:30.109Z,1017.97
2022-11-26T05:34:30.091Z,1017.96
2022-11-26T05:35:30.124Z,1017.99
2022-11-26T05:36:30.080Z,1018.03
2022-11-26T05:37:30.066Z,1018.02
2022-11-26T05:38:30.076Z,1018.01
2022-11-26T05:39:30.056Z,1018.06
2022-11-26T05:40:30.061Z,1017.99
2022-11-26T05:41:30.029Z,1018.05
2022-11-26T05:42:30.006Z,1018.06
2022-11-26T05:43:29.984Z,1018.07
2022-11-26T05:44:29.997Z,1018.08
2022-11-26T05:45:30.063Z,1018.07
2022-11-26T05:46:29.962Z,1018.10
2022-11-26T05:47:29.981Z,1018.09
2022-11-26T05:48:29.928Z,1018.10
2022-11-26T05:49:29.928Z,1018.14
2022-11-26T05:50:29.994Z,1018.09
2022-11-26T05:51:29.890Z,1018.14
2022-11-26T05:52:29.894Z,1018.17
2022-11-26T05:53:29.894Z,1018.18
2022-11-26T05:54:29.898Z,1018.15
2022-11-26T05:55:29.898Z,1018.20
2022-11-26T05:56:29.854Z,1018.19
2022-11-26T05:57:29.852Z,1018.21
2022-11-26T05:58:29.845Z,1018.17
2022-11-26T05:59:29.830Z,1018.20
2022-11-26T06:00:29.851Z,1018.20
2022-11-26T06:01:29.789Z,1018.21
2022-11-26T06:02:29.969Z,1018.16
2022-11-26T06:03:29.857Z,1018.25
2022-11-26T06:04:29.776Z,1018.25
2022-11-26T06:05:29.810Z,1018.28
2022-11-26T06:06:29.746Z,1018.24
2022-11-26T06:07:29.783Z,1018.24
2022-11-26T06:08:29.728Z,1018.24
2022-11-26T06:09:29.711Z,1018.34
2022-11-26T06:10:29.737Z,1018.36
2022-11-26T06:11:29.725Z,1018.34
2022-11-26T06:12:29.671Z,1018.36
2022-11-26T06:13:29.670Z,1018.38
2022-11-26T06:14:29.675Z,1018.41
2022-11-26T06:15:29.657Z,1018.45
2022-11-26T06:16:29.702Z,1018.48
2022-11-26T06:17:29.620Z,1018.45
2022-11-26T06:18:29.626Z,1018.47
2022-11-26T06:19:29.596Z,1018.49
2022-11-26T06:20:29.642Z,1018.49
2022-11-26T06:21:29.573Z,1018.46
2022-11-26T06:22:29.581Z,1018.47
2022-11-26T06:23:29.565Z,1018.50
2022-11-26T06:24:29.550Z,1018.49
2022-11-26T06:25:29.579Z,1018.54
2022-11-26T06:26:29.545Z,1018.55
2022-11-26T06:27:29.510Z,1018.54
2022-11-26T06:28:29.495Z,1018.57
2022-11-26T06:29:29.518Z,1018.57
2022-11-26T06:30:29.526Z,1018.63
2022-11-26T06:31:29.481Z,1018.62
2022-11-26T06:32:29.465Z,1018.62
2022-11-26T06:33:29.446Z,1018.63
2022-11-26T06:34:29.441Z,1018.62
2022-11-26T06:35:29.473Z,1018.64
2022-11-26T06:36:29.413Z,1018.67
2022-11-26T06:37:29.399Z,1018.71
2022-11-26T06:38:29.440Z,1018.70
2022-11-26T06:39:29.403Z,1018.69
2022-11-26T06:40:29.400Z,1018.70
2022-11-26T06:41:29.363Z,1018.71
2022-11-26T06:42:29.360Z,1018.76
2022-11-26T06:43:29.333Z,1018.76
2022-11-26T06:44:29.330Z,1018.83
2022-11-26T06:45:29.427Z,1018.85
2022-11-26T06:46:29.285Z,1018.90
2022-11-26T06:47:29.289Z,1018.88
2022-11-26T06:48:29.261Z,1018.85
2022-11-26T06:49:29.248Z,1018.84
2022-11-26T06:50:29.286Z,1018.88
2022-11-26T06:51:29.230Z,1018.92
2022-11-26T06:52:29.241Z,1018.88
2022-11-26T06:53:29.226Z,1018.92
2022-11-26T06:54:29.233Z,1018.95
2022-11-26T06:55:29.247Z,1018.92
2022-11-26T06:56:29.224Z,1018.98
2022-11-26T06:57:29.171Z,1018.96
2022-11-26T06:58:29.156Z,1018.97
2022-11-26T06:59:29.172Z,1019.01
2022-11-26T07:00:29.168Z,1019.03
2022-11-26T07:01:29.213Z,1019.04
2022-11-26T07:02:29.176Z,1019.04
2022-11-26T07:03:33.271Z,1019.08
2022-11-26T07:04:29.097Z,1019.07
2022-11-26T07:05:29.141Z,1019.09
2022-11-26T07:06:29.065Z,1019.09
2022-11-26T07:07:29.083Z,1019.11
2022-11-26T07:08:29.063Z,1019.09
2022-11-26T07:09:29.033Z,1019.09
2022-11-26T07:10:29.131Z,1019.16
2022-11-26T07:11:29.044Z,1019.12
2022-11-26T07:12:28.987Z,1019.16
2022-11-26T07:13:28.998Z,1019.19
2022-11-26T07:14:28.978Z,1019.20
2022-11-26T07:15:29.009Z,1019.20
2022-11-26T07:16:29.050Z,1019.20
2022-11-26T07:17:28.964Z,1019.22
2022-11-26T07:18:28.956Z,1019.22
2022-11-26T07:19:28.914Z,1019.22
2022-11-26T07:20:28.987Z,1019.24
2022-11-26T07:21:28.891Z,1019.29
2022-11-26T07:22:28.887Z,1019.27
2022-11-26T07:23:28.884Z,1019.29
2022-11-26T07:24:28.906Z,1019.30
2022-11-26T07:25:28.909Z,1019.34
2022-11-26T07:26:28.860Z,1019.33
2022-11-26T07:27:28.839Z,1019.32
2022-11-26T07:28:28.822Z,1019.35
2022-11-26T07:29:28.838Z,1019.35
2022-11-26T07:30:28.933Z,1019.33
2022-11-26T07:31:28.812Z,1019.37
2022-11-26T07:32:28.780Z,1019.40
2022-11-26T07:33:28.778Z,1019.37
2022-11-26T07:34:28.746Z,1019.41
2022-11-26T07:35:28.805Z,1019.41
2022-11-26T07:36:28.730Z,1019.41
2022-11-26T07:37:28.725Z,1019.44
2022-11-26T07:38:28.742Z,1019.39
2022-11-26T07:39:28.694Z,1019.44
2022-11-26T07:40:28.819Z,1019.46
2022-11-26T07:41:28.708Z,1019.48
2022-11-26T07:42:28.669Z,1019.47
2022-11-26T07:43:28.658Z,1019.54
2022-11-26T07:44:28.655Z,1019.53
2022-11-26T07:45:28.684Z,1019.50
2022-11-26T07:46:28.786Z,1019.53
2022-11-26T07:47:28.626Z,1019.57
2022-11-26T07:48:28.635Z,1019.58
2022-11-26T07:49:28.583Z,1019.56
2022-11-26T07:50:28.626Z,1019.54
2022-11-26T07:51:28.587Z,1019.55
2022-11-26T07:52:28.533Z,1019.58
2022-11-26T07:53:28.527Z,1019.58
2022-11-26T07:54:28.546Z,1019.60
2022-11-26T07:55:28.577Z,1019.59
2022-11-26T07:56:28.519Z,1019.58
2022-11-26T07:57:28.541Z,1019.55
2022-11-26T07:58:28.495Z,1019.59
2022-11-26T07:59:28.478Z,1019.59
2022-11-26T08:00:28.521Z,1019.62
2022-11-26T08:01:28.559Z,1019.61
2022-11-26T08:02:28.516Z,1019.58
2022-11-26T08:03:28.442Z,1019.64
2022-11-26T08:04:28.405Z,1019.62
2022-11-26T08:05:28.439Z,1019.64
2022-11-26T08:06:28.404Z,1019.64
2022-11-26T08:07:29.583Z,1019.70
2022-11-26T08:08:28.371Z,1019.69
2022-11-26T08:09:28.404Z,1019.72
2022-11-26T08:10:28.400Z,1019.76
2022-11-26T08:11:28.373Z,1019.73
2022-11-26T08:12:28.322Z,1019.78
2022-11-26T08:13:28.315Z,1019.77
2022-11-26T08:14:28.309Z,1019.80
2022-11-26T08:15:28.343Z,1019.85
2022-11-26T08:16:29.285Z,1019.91
2022-11-26T08:17:28.275Z,1019.88
2022-11-26T08:18:28.303Z,1019.84
2022-11-26T08:19:28.249Z,1019.88
2022-11-26T08:20:29.254Z,1019.86
2022-11-26T08:21:28.249Z,1019.90
2022-11-26T08:22:28.207Z,1019.90
2022-11-26T08:23:28.192Z,1019.86
2022-11-26T08:24:28.196Z,1019.85
2022-11-26T08:25:28.220Z,1019.87
2022-11-26T08:26:36.160Z,1019.87
2022-11-26T08:27:29.185Z,1019.90
2022-11-26T08:28:28.156Z,1020.02
2022-11-26T08:29:28.160Z,1019.95
2022-11-26T08:30:28.190Z,1020.01
2022-11-26T08:31:28.556Z,1019.99
2022-11-26T08:32:28.113Z,1019.96
2022-11-26T08:33:28.100Z,1019.99
2022-11-26T08:34:28.092Z,1019.93
2022-11-26T08:35:51.206Z,1019.96
2022-11-26T08:36:29.071Z,1019.93
2022-11-26T08:37:28.048Z,1019.93
2022-11-26T08:38:28.034Z,1019.99
2022-11-26T08:39:28.046Z,1019.99
2022-11-26T08:40:28.051Z,1019.99
2022-11-26T08:41:28.014Z,1020.02
2022-11-26T08:42:28.010Z,1020.03
2022-11-26T08:43:51.460Z,1020.02
2022-11-26T08:44:28.966Z,1020.08
2022-11-26T08:45:28.018Z,1020.05
2022-11-26T08:46:27.996Z,1020.06
2022-11-26T08:47:27.940Z,1020.06
2022-11-26T08:48:30.614Z,1020.13
2022-11-26T08:49:27.918Z,1020.14
2022-11-26T08:50:27.940Z,1020.13
2022-11-26T08:51:27.922Z,1020.20
2022-11-26T08:52:27.875Z,1020.21
2022-11-26T08:53:27.865Z,1020.23
2022-11-26T08:54:27.889Z,1020.21
2022-11-26T08:55:53.283Z,1020.26
2022-11-26T08:56:28.832Z,1020.16
2022-11-26T08:57:27.836Z,1020.26
2022-11-26T08:58:27.815Z,1020.22
2022-11-26T08:59:27.804Z,1020.23
2022-11-26T09:00:27.825Z,1020.29
2022-11-26T09:01:27.849Z,1020.26
2022-11-26T09:02:27.764Z,1020.23
2022-11-26T09:03:27.829Z,1020.26
2022-11-26T09:04:27.731Z,1020.31
2022-11-26T09:05:27.795Z,1020.33
2022-11-26T09:06:27.712Z,1020.30
2022-11-26T09:07:27.777Z,1020.32
2022-11-26T09:08:27.690Z,1020.30
2022-11-26T09:09:27.680Z,1020.30
2022-11-26T09:10:27.694Z,1020.28
2022-11-26T09:11:27.648Z,1020.34
2022-11-26T09:12:27.668Z,1020.39
2022-11-26T09:13:27.639Z,1020.28
2022-11-26T09:14:27.747Z,1020.33
2022-11-26T09:15:27.647Z,1020.36
2022-11-26T09:16:27.639Z,1020.34
2022-11-26T09:17:27.600Z,1020.33
2022-11-26T09:18:27.581Z,1020.31
2022-11-26T09:19:27.574Z,1020.32
2022-11-26T09:20:27.614Z,1020.29
2022-11-26T09:21:27.558Z,1020.33
2022-11-26T09:22:27.537Z,1020.39
2022-11-26T09:23:27.514Z,1020.38
2022-11-26T09:24:27.539Z,1020.41
2022-11-26T09:25:27.546Z,1020.42
2022-11-26T09:26:27.465Z,1020.44
2022-11-26T09:27:27.463Z,1020.49
2022-11-26T09:28:27.461Z,1020.52
2022-11-26T09:29:27.472Z,1020.53
2022-11-26T09:30:27.517Z,1020.58
2022-11-26T09:31:27.510Z,1020.50
2022-11-26T09:32:33.687Z,1020.57
2022-11-26T09:33:28.427Z,1020.55
2022-11-26T09:34:27.431Z,1020.61
2022-11-26T09:35:27.437Z,1020.55
2022-11-26T09:36:27.370Z,1020.58
2022-11-26T09:37:27.448Z,1020.58
2022-11-26T09:38:27.356Z,1020.54
2022-11-26T09:39:27.358Z,1020.52
2022-11-26T09:40:27.373Z,1020.52
2022-11-26T09:41:27.349Z,1020.54
2022-11-26T09:42:27.317Z,1020.56
2022-11-26T09:43:27.324Z,1020.55
2022-11-26T09:44:27.287Z,1020.50
2022-11-26T09:45:27.379Z,1020.58
2022-11-26T09:46:27.262Z,1020.62
2022-11-26T09:47:27.250Z,1020.63
2022-11-26T09:48:27.239Z,1020.60
2022-11-26T09:49:27.211Z,1020.61
2022-11-26T09:50:27.255Z,1020.61
2022-11-26T09:51:27.220Z,1020.62
2022-11-26T09:52:27.180Z,1020.62
2022-11-26T09:53:27.198Z,1020.66
2022-11-26T09:54:27.186Z,1020.73
2022-11-26T09:55:27.195Z,1020.69
2022-11-26T09:56:27.153Z,1020.69
2022-11-26T09:57:27.148Z,1020.69
2022-11-26T09:58:27.651Z,1020.73
2022-11-26T09:59:27.102Z,1020.73
2022-11-26T10:00:27.137Z,1020.72
2022-11-26T10:01:27.153Z,1020.73
2022-11-26T10:02:27.186Z,1020.77
2022-11-26T10:03:27.075Z,1020.79
2022-11-26T10:04:27.083Z,1020.79
2022-11-26T10:05:27.084Z,1020.88
2022-11-26T10:06:27.037Z,1020.81
2022-11-26T10:07:27.127Z,1020.86
2022-11-26T10:08:27.000Z,1020.86
2022-11-26T10:09:27.003Z,1020.90
2022-11-26T10:10:27.003Z,1020.85
2022-11-26T10:11:27.008Z,1020.86
2022-11-26T10:12:26.972Z,1020.92
2022-11-26T10:13:26.958Z,1020.93
2022-11-26T10:14:26.945Z,1020.90
2022-11-26T10:15:26.931Z,1020.93
2022-11-26T10:16:27.063Z,1020.92
2022-11-26T10:17:26.957Z,1020.95
2022-11-26T10:18:26.898Z,1020.94
2022-11-26T10:19:26.891Z,1020.89
2022-11-26T10:20:26.890Z,1020.96
2022-11-26T10:21:44.336Z,1020.95
2022-11-26T10:22:27.866Z,1020.97
2022-11-26T10:23:26.856Z,1020.95
2022-11-26T10:24:26.841Z,1020.97
2022-11-26T10:25:26.817Z,1020.96
2022-11-26T10:26:26.822Z,1020.98
2022-11-26T10:27:26.794Z,1021.02
2022-11-26T10:28:26.788Z,1020.99
2022-11-26T10:29:26.778Z,1020.98
2022-11-26T10:30:26.736Z,1021.03
2022-11-26T10:31:26.788Z,1021.01
2022-11-26T10:32:26.721Z,1021.03
2022-11-26T10:33:26.735Z,1021.05
2022-11-26T10:34:29.833Z,1021.00
2022-11-26T10:35:26.704Z,1020.98
2022-11-26T10:36:26.736Z,1020.97
2022-11-26T10:37:26.665Z,1021.03
2022-11-26T10:38:26.669Z,1021.01
2022-11-26T10:39:26.661Z,1021.03
2022-11-26T10:40:26.642Z,1021.07
2022-11-26T10:41:26.625Z,1021.07
2022-11-26T10:42:26.674Z,1021.10
2022-11-26T10:43:26.589Z,1021.09
2022-11-26T10:44:26.582Z,1021.10
2022-11-26T10:45:26.601Z,1021.16
2022-11-26T10:46:26.630Z,1021.09
2022-11-26T10:47:26.613Z,1021.21
2022-11-26T10:48:26.583Z,1021.18
2022-11-26T10:49:26.528Z,1021.13
2022-11-26T10:51:27.533Z,1021.14
2022-11-26T10:52:26.541Z,1021.17
2022-11-26T10:53:26.484Z,1021.14
2022-11-26T10:54:26.494Z,1021.15
2022-11-26T10:55:26.463Z,1021.15
2022-11-26T10:56:26.457Z,1021.16
2022-11-26T10:57:26.479Z,1021.21
2022-11-26T10:58:26.453Z,1021.24
2022-11-26T10:59:26.419Z,1021.20
2022-11-26T11:00:26.584Z,1021.20
2022-11-26T11:01:26.407Z,1021.31
2022-11-26T11:02:26.482Z,1021.25
2022-11-26T11:03:51.850Z,1021.28
2022-11-26T11:04:27.371Z,1021.29
2022-11-26T11:05:26.344Z,1021.21
2022-11-26T11:06:26.369Z,1021.24
2022-11-26T11:07:26.402Z,1021.26
2022-11-26T11:08:26.303Z,1021.21
2022-11-26T11:09:26.338Z,1021.24
2022-11-26T11:10:26.283Z,1021.21
2022-11-26T11:11:26.295Z,1021.22
2022-11-26T11:12:26.300Z,1021.19
2022-11-26T11:13:26.260Z,1021.19
2022-11-26T11:14:26.240Z,1021.20
2022-11-26T11:15:26.233Z,1021.28
2022-11-26T11:16:26.290Z,1021.30
2022-11-26T11:17:26.263Z,1021.30
2022-11-26T11:18:26.214Z,1021.28
2022-11-26T11:19:27.134Z,1021.30
2022-11-26T11:20:26.182Z,1021.35
2022-11-26T11:21:26.178Z,1021.32
2022-11-26T11:22:26.159Z,1021.34
2022-11-26T11:23:40.361Z,1021.34
2022-11-26T11:24:27.164Z,1021.33
2022-11-26T11:25:26.119Z,1021.32
2022-11-26T11:26:26.099Z,1021.34
2022-11-26T11:27:26.111Z,1021.32
2022-11-26T11:28:26.112Z,1021.38
2022-11-26T11:29:26.058Z,1021.43
2022-11-26T11:30:26.064Z,1021.44
2022-11-26T11:31:26.155Z,1021.41
2022-11-26T11:32:26.063Z,1021.42
2022-11-26T11:33:26.048Z,1021.39
2022-11-26T11:34:26.014Z,1021.45
2022-11-26T11:35:25.977Z,1021.39
2022-11-26T11:36:25.976Z,1021.49
2022-11-26T11:37:25.998Z,1021.46
2022-11-26T11:38:26.039Z,1021.42
2022-11-26T11:39:25.961Z,1021.47
2022-11-26T11:40:25.975Z,1021.50
2022-11-26T11:41:25.956Z,1021.49
2022-11-26T11:42:25.931Z,1021.51
2022-11-26T11:43:25.945Z,1021.50
2022-11-26T11:44:25.923Z,1021.53
2022-11-26T11:45:25.904Z,1021.58
2022-11-26T11:46:25.920Z,1021.59
2022-11-26T11:47:25.860Z,1021.57
2022-11-26T11:48:25.906Z,1021.56
2022-11-26T11:49:25.870Z,1021.58
2022-11-26T11:50:25.830Z,1021.61
2022-11-26T11:51:25.845Z,1021.64
2022-11-26T11:52:25.827Z,1021.65
2022-11-26T11:53:25.828Z,1021.59
2022-11-26T11:54:25.795Z,1021.64
2022-11-26T11:55:25.794Z,1021.60
2022-11-26T11:56:25.778Z,1021.58
2022-11-26T11:57:25.752Z,1021.56
2022-11-26T11:58:25.769Z,1021.55
2022-11-26T11:59:25.740Z,1021.58
2022-11-26T12:00:25.705Z,1021.57
2022-11-26T12:01:25.724Z,1021.53
2022-11-26T12:02:25.790Z,1021.62
2022-11-26T12:03:25.741Z,1021.64
2022-11-26T12:04:25.677Z,1021.60
2022-11-26T12:05:25.669Z,1021.55
2022-11-26T12:06:25.658Z,1021.56